Time;durP1;ratioP1;P1;durP2;ratioP2;P2;SDS_P1;SDS_P2;PMS_P1;PMS_P2;Temp;Humidity;BMP_temperature;BMP_pressure;BME280_temperature;BME280_humidity;BME280_pressure;Samples;Min_cycle;Max_cycle;Signal;HPM_P1;HPM_P2
2023/11/28 00:01:20;;;;;;;6.53;3.70;;;;;;;;;;5013428;28;20380;-71
2023/11/28 00:04:06;;;;;;;7.28;4.00;;;;;;;;;;5013637;28;20049;-71
2023/11/28 00:06:53;;;;;;;9.23;4.55;;;;;;;;;;5013758;28;20022;-71
2023/11/28 00:09:39;;;;;;;7.90;4.07;;;;;;;;;;4999109;28;20073;-71
2023/11/28 00:12:25;;;;;;;7.95;3.30;;;;;;;;;;5013616;28;20105;-71
2023/11/28 00:15:10;;;;;;;7.50;3.83;;;;;;;;;;5013301;28;20030;-71
2023/11/28 00:17:56;;;;;;;5.30;3.47;;;;;;;;;;5013170;28;20026;-71
2023/11/28 00:20:42;;;;;;;6.93;3.35;;;;;;;;;;5013998;28;20049;-72
2023/11/28 00:23:27;;;;;;;5.30;3.38;;;;;;;;;;5012943;28;20505;-71
2023/11/28 00:26:14;;;;;;;5.72;3.15;;;;;;;;;;4984707;28;20113;-71
2023/11/28 00:29:00;;;;;;;4.63;3.20;;;;;;;;;;4973765;28;20172;-71
2023/11/28 00:31:45;;;;;;;4.55;3.00;;;;;;;;;;4979663;28;20460;-71
2023/11/28 00:34:31;;;;;;;6.03;2.95;;;;;;;;;;4974538;28;20033;-71
2023/11/28 00:37:16;;;;;;;5.97;3.28;;;;;;;;;;4989035;28;20018;-71
2023/11/28 00:40:11;;;;;;;5.47;2.90;;;;;;;;;;4992619;28;20029;-71
2023/11/28 00:42:57;;;;;;;4.55;3.35;;;;;;;;;;5004805;28;20029;-71
2023/11/28 00:45:42;;;;;;;3.67;2.78;;;;;;;;;;5012151;28;20022;-71
2023/11/28 00:48:28;;;;;;;5.13;3.63;;;;;;;;;;5003959;28;20030;-68
2023/11/28 00:51:17;;;;;;;4.50;2.90;;;;;;;;;;4993721;28;20022;-69
2023/11/28 00:54:02;;;;;;;5.20;2.85;;;;;;;;;;4989045;28;20124;-68
2023/11/28 00:56:50;;;;;;;6.18;3.33;;;;;;;;;;4974196;28;20027;-69
2023/11/28 00:59:36;;;;;;;3.90;3.35;;;;;;;;;;4957927;28;20062;-69
2023/11/28 01:02:21;;;;;;;7.82;3.35;;;;;;;;;;4976130;28;20050;-68
2023/11/28 01:05:11;;;;;;;5.10;2.78;;;;;;;;;;4973966;28;20018;-69
2023/11/28 01:07:57;;;;;;;6.38;3.53;;;;;;;;;;4952063;28;20026;-69
2023/11/28 01:10:42;;;;;;;3.42;2.28;;;;;;;;;;4972345;28;20507;-68
2023/11/28 01:13:28;;;;;;;5.38;3.08;;;;;;;;;;4999518;28;20492;-69
2023/11/28 01:16:14;;;;;;;5.80;2.80;;;;;;;;;;4993176;28;20023;-69
2023/11/28 01:19:00;;;;;;;5.45;2.85;;;;;;;;;;5009640;28;20060;-69
2023/11/28 01:21:45;;;;;;;3.05;2.35;;;;;;;;;;5010756;28;20118;-68
2023/11/28 01:24:31;;;;;;;5.72;3.80;;;;;;;;;;5011715;28;20022;-70
2023/11/28 01:27:17;;;;;;;4.57;2.85;;;;;;;;;;4986848;28;20037;-70
2023/11/28 01:30:03;;;;;;;5.30;2.75;;;;;;;;;;4988289;28;20029;-70
2023/11/28 01:32:48;;;;;;;5.70;4.05;;;;;;;;;;4997914;28;20022;-69
2023/11/28 01:35:34;;;;;;;5.45;2.90;;;;;;;;;;5008253;28;20167;-70
2023/11/28 01:38:19;;;;;;;6.95;3.13;;;;;;;;;;4974385;28;20026;-70
2023/11/28 01:41:05;;;;;;;6.70;2.95;;;;;;;;;;4973222;28;20023;-70
2023/11/28 01:43:51;;;;;;;6.28;3.55;;;;;;;;;;4972051;28;20038;-70
2023/11/28 01:46:39;;;;;;;4.32;2.35;;;;;;;;;;4973355;28;20026;-70
2023/11/28 01:49:30;;;;;;;4.38;3.45;;;;;;;;;;4985886;28;20106;-70
2023/11/28 01:52:16;;;;;;;7.63;3.10;;;;;;;;;;4978447;28;20026;-70
2023/11/28 01:55:02;;;;;;;5.30;2.83;;;;;;;;;;4988832;28;20444;-69
2023/11/28 01:57:48;;;;;;;4.28;3.00;;;;;;;;;;4972942;28;20023;-70
2023/11/28 02:00:34;;;;;;;5.22;3.05;;;;;;;;;;4989684;28;20025;-69
2023/11/28 02:03:22;;;;;;;4.00;3.13;;;;;;;;;;4990193;28;20500;-70
2023/11/28 02:06:09;;;;;;;5.00;2.83;;;;;;;;;;4958661;28;20038;-70
2023/11/28 02:08:54;;;;;;;3.63;2.67;;;;;;;;;;4978571;28;20029;-69
2023/11/28 02:11:40;;;;;;;3.25;2.60;;;;;;;;;;4977086;28;20086;-70
2023/11/28 02:14:25;;;;;;;3.85;2.47;;;;;;;;;;4976416;28;20420;-70
2023/11/28 02:17:11;;;;;;;6.25;3.38;;;;;;;;;;4976798;28;20113;-70
2023/11/28 02:19:57;;;;;;;3.28;2.30;;;;;;;;;;4972022;28;20023;-70
2023/11/28 02:22:43;;;;;;;2.75;1.85;;;;;;;;;;4975901;28;20026;-70
2023/11/28 02:25:34;;;;;;;2.53;2.08;;;;;;;;;;4998720;28;20026;-70
2023/11/28 02:28:21;;;;;;;3.90;2.05;;;;;;;;;;5001178;28;20030;-69
2023/11/28 02:31:07;;;;;;;3.03;2.72;;;;;;;;;;4961966;28;20030;-69
2023/11/28 02:33:53;;;;;;;3.85;2.63;;;;;;;;;;4981367;28;20026;-69
2023/11/28 02:36:38;;;;;;;3.72;1.98;;;;;;;;;;4987218;28;20023;-70
2023/11/28 02:39:24;;;;;;;4.43;2.42;;;;;;;;;;4993443;28;20029;-69
2023/11/28 02:42:10;;;;;;;5.43;2.20;;;;;;;;;;4991160;28;20054;-69
2023/11/28 02:44:55;;;;;;;4.35;2.47;;;;;;;;;;4992544;28;20058;-69
2023/11/28 02:47:41;;;;;;;3.60;2.38;;;;;;;;;;4988985;28;20049;-69
2023/11/28 02:50:26;;;;;;;8.18;2.72;;;;;;;;;;4973199;28;20031;-69
2023/11/28 02:53:12;;;;;;;3.47;2.58;;;;;;;;;;4984482;28;20081;-69
2023/11/28 02:55:58;;;;;;;3.00;2.03;;;;;;;;;;4991790;28;20030;-69
2023/11/28 02:58:43;;;;;;;3.22;2.38;;;;;;;;;;4970037;28;20500;-69
2023/11/28 03:01:29;;;;;;;5.97;2.40;;;;;;;;;;4991889;28;20395;-70
2023/11/28 03:04:15;;;;;;;4.18;2.65;;;;;;;;;;4990309;28;20023;-69
2023/11/28 03:07:00;;;;;;;3.80;2.38;;;;;;;;;;4985747;28;20052;-69
2023/11/28 03:09:46;;;;;;;3.75;2.22;;;;;;;;;;4984537;28;20090;-69
2023/11/28 03:12:31;;;;;;;3.97;3.13;;;;;;;;;;4989333;28;20484;-68
2023/11/28 03:15:17;;;;;;;3.17;2.17;;;;;;;;;;4986252;28;20506;-69
2023/11/28 03:18:03;;;;;;;4.25;2.83;;;;;;;;;;4990520;28;20030;-70
2023/11/28 03:20:48;;;;;;;3.65;2.45;;;;;;;;;;5003234;28;20030;-70
2023/11/28 03:23:34;;;;;;;8.00;3.10;;;;;;;;;;4997427;28;20026;-70
2023/11/28 03:26:20;;;;;;;4.05;2.78;;;;;;;;;;4995189;28;20400;-70
2023/11/28 03:29:05;;;;;;;4.07;2.42;;;;;;;;;;5006153;28;20057;-69
2023/11/28 03:31:51;;;;;;;5.15;2.55;;;;;;;;;;4986335;28;20018;-70
2023/11/28 03:34:39;;;;;;;5.00;2.90;;;;;;;;;;4988618;28;20368;-70
2023/11/28 03:37:28;;;;;;;3.53;3.05;;;;;;;;;;4975282;28;20076;-70
2023/11/28 03:40:14;;;;;;;4.13;2.33;;;;;;;;;;5007503;28;20037;-70
2023/11/28 03:42:59;;;;;;;3.80;2.58;;;;;;;;;;5013441;28;20026;-70
2023/11/28 03:45:45;;;;;;;3.35;2.28;;;;;;;;;;4993398;28;20026;-69
2023/11/28 03:48:30;;;;;;;4.50;2.42;;;;;;;;;;4994791;28;20023;-70
2023/11/28 03:51:16;;;;;;;4.13;3.00;;;;;;;;;;5005437;28;20557;-70
2023/11/28 03:54:02;;;;;;;8.98;3.25;;;;;;;;;;5005681;28;20045;-70
2023/11/28 03:56:48;;;;;;;4.32;2.50;;;;;;;;;;4993712;28;20033;-69
2023/11/28 03:59:33;;;;;;;3.97;2.97;;;;;;;;;;5000307;28;20037;-70
2023/11/28 04:02:19;;;;;;;3.45;2.28;;;;;;;;;;4997909;28;20026;-70
2023/11/28 04:05:06;;;;;;;3.90;2.83;;;;;;;;;;5013581;28;20029;-70
2023/11/28 04:07:51;;;;;;;5.53;3.47;;;;;;;;;;5011263;28;20041;-70
2023/11/28 04:10:37;;;;;;;3.60;2.70;;;;;;;;;;5013696;28;20490;-70
2023/11/28 04:13:22;;;;;;;5.15;3.05;;;;;;;;;;4981948;28;20468;-70
2023/11/28 04:16:08;;;;;;;4.50;2.97;;;;;;;;;;5006571;28;20075;-70
2023/11/28 04:18:54;;;;;;;4.22;3.42;;;;;;;;;;5012839;28;20104;-70
2023/11/28 04:21:39;;;;;;;4.05;2.63;;;;;;;;;;5000051;28;20104;-70
2023/11/28 04:24:25;;;;;;;4.07;2.85;;;;;;;;;;5011997;28;20184;-70
2023/11/28 04:27:10;;;;;;;4.53;2.97;;;;;;;;;;5003460;28;20018;-69
2023/11/28 04:29:56;;;;;;;5.80;3.17;;;;;;;;;;4999715;28;20499;-70
2023/11/28 04:32:42;;;;;;;5.90;3.75;;;;;;;;;;5005215;28;20041;-70
2023/11/28 04:35:28;;;;;;;3.85;3.00;;;;;;;;;;5007133;28;20039;-70
2023/11/28 04:38:13;;;;;;;8.38;3.75;;;;;;;;;;4992570;28;20034;-70
2023/11/28 04:40:59;;;;;;;10.40;3.03;;;;;;;;;;4993887;28;20407;-70
2023/11/28 04:43:44;;;;;;;5.93;2.72;;;;;;;;;;4983114;28;20065;-70
2023/11/28 04:46:30;;;;;;;3.67;2.78;;;;;;;;;;4973910;28;20034;-70
2023/11/28 04:49:16;;;;;;;3.38;2.35;;;;;;;;;;4990293;28;20027;-70
2023/11/28 04:52:02;;;;;;;5.22;3.22;;;;;;;;;;4992655;28;20106;-70
2023/11/28 04:54:47;;;;;;;5.20;2.88;;;;;;;;;;4992267;28;20030;-70
2023/11/28 04:57:33;;;;;;;8.80;2.83;;;;;;;;;;4992072;28;20030;-69
2023/11/28 05:00:19;;;;;;;5.95;2.65;;;;;;;;;;4977695;28;20113;-70
2023/11/28 05:03:04;;;;;;;4.88;2.67;;;;;;;;;;4973944;28;20066;-70
2023/11/28 05:05:50;;;;;;;4.05;3.10;;;;;;;;;;4988430;28;20524;-70
2023/11/28 05:08:36;;;;;;;4.90;3.05;;;;;;;;;;4978588;28;20023;-70
2023/11/28 05:11:21;;;;;;;7.88;2.72;;;;;;;;;;4991863;28;20022;-70
2023/11/28 05:14:07;;;;;;;5.50;2.72;;;;;;;;;;4992547;28;20037;-70
2023/11/28 05:16:52;;;;;;;3.60;2.80;;;;;;;;;;4992427;28;20022;-69
2023/11/28 05:19:38;;;;;;;5.47;3.08;;;;;;;;;;4995303;28;20499;-70
2023/11/28 05:22:24;;;;;;;4.20;2.95;;;;;;;;;;4993019;28;20446;-69
2023/11/28 05:25:10;;;;;;;7.75;2.28;;;;;;;;;;4979954;28;20030;-69
2023/11/28 05:27:55;;;;;;;4.20;3.00;;;;;;;;;;5009375;28;20041;-70
2023/11/28 05:30:41;;;;;;;4.93;2.47;;;;;;;;;;4993090;28;20022;-70
2023/11/28 05:33:27;;;;;;;3.97;2.78;;;;;;;;;;4992858;28;20030;-70
2023/11/28 05:36:12;;;;;;;5.55;3.22;;;;;;;;;;4991783;28;20033;-70
2023/11/28 05:38:59;;;;;;;4.07;2.72;;;;;;;;;;4990575;28;20483;-70
2023/11/28 05:41:45;;;;;;;3.13;2.80;;;;;;;;;;4993359;28;20026;-70
2023/11/28 05:44:31;;;;;;;2.88;2.33;;;;;;;;;;4998734;28;20555;-70
2023/11/28 05:47:16;;;;;;;7.47;2.63;;;;;;;;;;4996011;28;20113;-70
2023/11/28 05:50:02;;;;;;;5.32;3.00;;;;;;;;;;5004960;28;20033;-69
2023/11/28 05:52:50;;;;;;;7.72;3.25;;;;;;;;;;5015824;28;20026;-70
2023/11/28 05:55:36;;;;;;;4.88;2.97;;;;;;;;;;5015797;28;20026;-70
2023/11/28 05:58:22;;;;;;;7.43;3.42;;;;;;;;;;5067284;23;20536;-67
2023/11/28 06:01:08;;;;;;;3.70;2.92;;;;;;;;;;5014434;28;20022;-65
2023/11/28 06:03:54;;;;;;;7.15;3.22;;;;;;;;;;4982375;28;20034;-67
2023/11/28 06:06:41;;;;;;;4.05;2.60;;;;;;;;;;4995110;28;20027;-65
2023/11/28 06:09:28;;;;;;;4.25;2.55;;;;;;;;;;5000094;28;20423;-67
2023/11/28 06:12:13;;;;;;;4.03;3.00;;;;;;;;;;5001732;28;20041;-67
2023/11/28 06:14:59;;;;;;;2.95;2.20;;;;;;;;;;4997003;28;20030;-67
2023/11/28 06:17:45;;;;;;;4.38;2.92;;;;;;;;;;4995142;28;20110;-65
2023/11/28 06:20:31;;;;;;;6.50;3.40;;;;;;;;;;4996920;28;20029;-67
2023/11/28 06:23:18;;;;;;;7.50;3.85;;;;;;;;;;4969665;28;20038;-65
2023/11/28 06:26:04;;;;;;;7.82;3.60;;;;;;;;;;4975332;28;20031;-66
2023/11/28 06:28:49;;;;;;;6.88;5.03;;;;;;;;;;4975944;28;20110;-67
2023/11/28 06:31:35;;;;;;;7.57;3.83;;;;;;;;;;4976108;28;20034;-67
2023/11/28 06:34:21;;;;;;;4.55;2.75;;;;;;;;;;4976255;28;20027;-67
2023/11/28 06:37:06;;;;;;;3.28;2.28;;;;;;;;;;4975298;28;20019;-67
2023/11/28 06:39:52;;;;;;;3.45;2.58;;;;;;;;;;4976214;28;20025;-67
2023/11/28 06:42:38;;;;;;;5.13;3.38;;;;;;;;;;4976284;28;20050;-67
2023/11/28 06:45:24;;;;;;;5.47;3.10;;;;;;;;;;4975972;28;20031;-67
2023/11/28 06:48:09;;;;;;;7.32;2.97;;;;;;;;;;4975628;28;20484;-67
2023/11/28 06:50:55;;;;;;;4.75;2.97;;;;;;;;;;4975027;28;20027;-67
2023/11/28 06:53:41;;;;;;;7.60;3.72;;;;;;;;;;4976261;28;20022;-67
2023/11/28 06:56:27;;;;;;;3.38;2.55;;;;;;;;;;4976865;28;20023;-67
2023/11/28 06:59:12;;;;;;;6.25;2.47;;;;;;;;;;4976228;28;20042;-67
2023/11/28 07:01:58;;;;;;;4.65;2.83;;;;;;;;;;4974839;28;20058;-67
2023/11/28 07:04:44;;;;;;;4.32;2.97;;;;;;;;;;4975675;28;20380;-67
2023/11/28 07:07:29;;;;;;;5.55;3.40;;;;;;;;;;4975668;28;20051;-67
2023/11/28 07:10:15;;;;;;;5.00;2.25;;;;;;;;;;4974770;28;20023;-67
2023/11/28 07:13:00;;;;;;;4.78;2.92;;;;;;;;;;4975351;28;20130;-67
2023/11/28 07:15:46;;;;;;;5.78;2.92;;;;;;;;;;4976087;28;20031;-67
2023/11/28 07:18:32;;;;;;;4.25;2.30;;;;;;;;;;4976401;28;20023;-67
2023/11/28 07:21:17;;;;;;;7.07;2.63;;;;;;;;;;4975137;28;20033;-67
2023/11/28 07:24:03;;;;;;;3.13;2.30;;;;;;;;;;4974555;28;20034;-67
2023/11/28 07:26:49;;;;;;;5.00;2.58;;;;;;;;;;4974954;28;20146;-67
2023/11/28 07:29:35;;;;;;;4.25;2.30;;;;;;;;;;4975236;28;20073;-67
2023/11/28 07:32:20;;;;;;;6.22;2.75;;;;;;;;;;4975091;28;20023;-67
2023/11/28 07:35:06;;;;;;;4.10;2.58;;;;;;;;;;4974154;28;20023;-67
2023/11/28 07:37:52;;;;;;;4.43;2.35;;;;;;;;;;4976110;28;20018;-67
2023/11/28 07:40:40;;;;;;;2.92;2.03;;;;;;;;;;4976331;28;20023;-67
2023/11/28 07:43:26;;;;;;;4.03;3.00;;;;;;;;;;4961261;28;20547;-67
2023/11/28 07:46:12;;;;;;;2.67;1.95;;;;;;;;;;4975292;28;20044;-67
2023/11/28 07:48:58;;;;;;;4.25;2.78;;;;;;;;;;4974093;28;20019;-67
2023/11/28 07:51:44;;;;;;;5.00;2.22;;;;;;;;;;4974776;28;20121;-67
2023/11/28 07:54:29;;;;;;;4.07;2.28;;;;;;;;;;4997459;28;20072;-67
2023/11/28 07:57:15;;;;;;;3.70;2.03;;;;;;;;;;4998850;28;20018;-67
2023/11/28 08:00:02;;;;;;;3.47;2.15;;;;;;;;;;5004089;28;20026;-67
2023/11/28 08:02:48;;;;;;;6.72;2.60;;;;;;;;;;4976739;28;20116;-67
2023/11/28 08:05:33;;;;;;;5.60;3.47;;;;;;;;;;4993167;28;20113;-67
2023/11/28 08:08:19;;;;;;;4.38;2.47;;;;;;;;;;4993728;28;20019;-67
2023/11/28 08:11:10;;;;;;;3.92;2.55;;;;;;;;;;5008156;28;20038;-66
2023/11/28 08:13:55;;;;;;;13.48;5.68;;;;;;;;;;4999474;28;20049;-67
2023/11/28 08:16:41;;;;;;;20.27;7.38;;;;;;;;;;4997587;28;20024;-67
2023/11/28 08:19:27;;;;;;;7.47;3.35;;;;;;;;;;5000408;28;20403;-67
2023/11/28 08:22:12;;;;;;;3.95;2.90;;;;;;;;;;4993179;28;20018;-67
2023/11/28 08:25:03;;;;;;;2.95;2.15;;;;;;;;;;5009975;28;20025;-66
2023/11/28 08:27:48;;;;;;;4.93;2.45;;;;;;;;;;5012301;28;20026;-67
2023/11/28 08:30:34;;;;;;;5.57;2.80;;;;;;;;;;4993055;28;20038;-67
2023/11/28 08:33:19;;;;;;;3.05;2.58;;;;;;;;;;4994724;28;20042;-67
2023/11/28 08:36:05;;;;;;;3.92;2.78;;;;;;;;;;4995434;28;20101;-67
2023/11/28 08:38:51;;;;;;;9.63;3.83;;;;;;;;;;5011609;28;20026;-67
2023/11/28 08:41:36;;;;;;;39.00;11.68;;;;;;;;;;5012854;28;20026;-67
2023/11/28 08:44:22;;;;;;;26.35;9.15;;;;;;;;;;5012563;28;20033;-67
2023/11/28 08:47:08;;;;;;;5.10;3.33;;;;;;;;;;5012939;28;20061;-67
2023/11/28 08:49:56;;;;;;;4.40;2.78;;;;;;;;;;5013396;28;20050;-68
2023/11/28 08:52:42;;;;;;;7.20;3.05;;;;;;;;;;5012811;28;20026;-67
2023/11/28 08:55:28;;;;;;;3.55;2.55;;;;;;;;;;5012863;28;20064;-67
2023/11/28 08:58:14;;;;;;;2.92;2.28;;;;;;;;;;5009155;28;20032;-68
2023/11/28 09:00:59;;;;;;;15.95;4.20;;;;;;;;;;4994464;28;20034;-68
2023/11/28 09:03:45;;;;;;;15.65;6.72;;;;;;;;;;4992424;28;20037;-68
2023/11/28 09:06:31;;;;;;;8.93;3.65;;;;;;;;;;5002260;28;20025;-67
2023/11/28 09:09:16;;;;;;;9.43;4.95;;;;;;;;;;5012289;28;20034;-66
2023/11/28 09:12:02;;;;;;;5.07;2.92;;;;;;;;;;5012944;28;20076;-67
2023/11/28 09:14:48;;;;;;;4.68;2.72;;;;;;;;;;4996341;28;20462;-67
2023/11/28 09:17:34;;;;;;;5.20;3.15;;;;;;;;;;4977247;28;20503;-67
2023/11/28 09:20:20;;;;;;;3.42;2.53;;;;;;;;;;4991839;28;20076;-67
2023/11/28 09:23:05;;;;;;;5.78;2.47;;;;;;;;;;4993836;28;20114;-67
2023/11/28 09:25:51;;;;;;;3.83;2.95;;;;;;;;;;5011158;28;20030;-67
2023/11/28 09:28:37;;;;;;;7.18;4.38;;;;;;;;;;5006036;28;20450;-67
2023/11/28 09:31:26;;;;;;;4.95;2.88;;;;;;;;;;4992343;28;20030;-67
2023/11/28 09:34:11;;;;;;;3.08;1.95;;;;;;;;;;4992287;28;20492;-67
2023/11/28 09:36:57;;;;;;;6.93;3.08;;;;;;;;;;5009091;28;20022;-67
2023/11/28 09:39:43;;;;;;;10.75;4.15;;;;;;;;;;4996192;28;20101;-67
2023/11/28 09:42:30;;;;;;;5.10;2.90;;;;;;;;;;5011803;28;20026;-67
2023/11/28 09:45:18;;;;;;;3.67;3.28;;;;;;;;;;4992904;28;20030;-67
2023/11/28 09:48:13;;;;;;;4.07;2.33;;;;;;;;;;4991969;28;20042;-67
2023/11/28 09:51:00;;;;;;;3.22;2.92;;;;;;;;;;4992268;28;20034;-68
2023/11/28 09:53:46;;;;;;;2.53;2.03;;;;;;;;;;4972650;28;20034;-68
2023/11/28 09:56:32;;;;;;;4.40;2.88;;;;;;;;;;4972700;28;20022;-68
2023/11/28 09:59:18;;;;;;;3.83;2.38;;;;;;;;;;4977718;28;20061;-67
2023/11/28 10:02:05;;;;;;;3.50;2.30;;;;;;;;;;4983342;28;20462;-67
2023/11/28 10:04:51;;;;;;;5.70;3.47;;;;;;;;;;4992106;28;20027;-67
2023/11/28 10:07:37;;;;;;;4.03;2.25;;;;;;;;;;4991028;28;20408;-67
2023/11/28 10:10:23;;;;;;;2.78;2.35;;;;;;;;;;4979111;28;20483;-67
2023/11/28 10:13:09;;;;;;;7.07;2.90;;;;;;;;;;4992497;28;20503;-67
2023/11/28 10:15:58;;;;;;;4.35;2.13;;;;;;;;;;4992929;28;20022;-67
2023/11/28 10:18:47;;;;;;;4.45;2.88;;;;;;;;;;4992635;28;20026;-67
2023/11/28 10:21:33;;;;;;;4.13;2.70;;;;;;;;;;4992480;28;20022;-67
2023/11/28 10:24:21;;;;;;;5.68;3.55;;;;;;;;;;4976992;28;20500;-67
2023/11/28 10:27:07;;;;;;;5.28;2.72;;;;;;;;;;4993008;28;20035;-67
2023/11/28 10:29:53;;;;;;;5.85;3.17;;;;;;;;;;4992216;28;20392;-67
2023/11/28 10:32:39;;;;;;;7.72;3.65;;;;;;;;;;4994399;28;20520;-67
2023/11/28 10:35:40;;;;;;;6.72;4.00;;;;;;;;;;4983082;28;20033;-67
2023/11/28 10:38:27;;;;;;;5.03;3.03;;;;;;;;;;4995049;28;20031;-67
2023/11/28 10:41:12;;;;;;;4.47;3.70;;;;;;;;;;4981518;28;20109;-67
2023/11/28 10:43:58;;;;;;;7.47;3.75;;;;;;;;;;4982767;28;20105;-67
2023/11/28 10:46:44;;;;;;;4.50;3.22;;;;;;;;;;4997344;28;20125;-67
2023/11/28 10:49:29;;;;;;;7.20;3.53;;;;;;;;;;4995150;28;20381;-67
2023/11/28 10:52:19;;;;;;;9.32;3.47;;;;;;;;;;4995812;28;20104;-67
2023/11/28 10:55:08;;;;;;;4.38;3.25;;;;;;;;;;4994773;28;20037;-67
2023/11/28 10:58:00;;;;;;;7.63;3.80;;;;;;;;;;4995715;28;20101;-67
2023/11/28 11:00:52;;;;;;;10.07;3.67;;;;;;;;;;4995632;28;20033;-67
2023/11/28 11:03:38;;;;;;;5.40;3.28;;;;;;;;;;4995012;28;20526;-67
2023/11/28 11:06:24;;;;;;;6.35;3.35;;;;;;;;;;4995833;28;20384;-67
2023/11/28 11:09:13;;;;;;;5.05;2.85;;;;;;;;;;4995377;28;20116;-67
2023/11/28 11:12:00;;;;;;;7.88;4.05;;;;;;;;;;4995096;28;20030;-67
2023/11/28 11:14:59;;;;;;;8.13;3.03;;;;;;;;;;4995168;28;20388;-67
2023/11/28 11:18:28;;;;;;;5.13;3.53;;;;;;;;;;4995701;28;20025;-67
2023/11/28 11:21:25;;;;;;;9.95;2.92;;;;;;;;;;4995639;28;20030;-67
2023/11/28 11:24:16;;;;;;;4.97;3.55;;;;;;;;;;4981623;28;20026;-67
2023/11/28 11:27:02;;;;;;;;;;;;;;;;;;4995109;28;20057;-68
2023/11/28 11:29:48;;;;;;;4.03;3.33;;;;;;;;;;4995499;28;19956;-68
2023/11/28 11:32:34;;;;;;;4.60;3.50;;;;;;;;;;4996574;28;20026;-68
2023/11/28 11:35:20;;;;;;;9.15;3.33;;;;;;;;;;4992078;28;20084;-68
2023/11/28 11:38:25;;;;;;;6.05;3.30;;;;;;;;;;4994391;28;20399;-68
2023/11/28 11:41:11;;;;;;;4.18;2.60;;;;;;;;;;4995167;28;20026;-67
2023/11/28 11:43:57;;;;;;;5.78;3.53;;;;;;;;;;5012943;28;20101;-67
2023/11/28 11:46:43;;;;;;;3.53;2.70;;;;;;;;;;4995430;28;20113;-68
2023/11/28 11:49:29;;;;;;;8.80;3.22;;;;;;;;;;4993957;28;20517;-68
2023/11/28 11:52:16;;;;;;;6.00;3.30;;;;;;;;;;4993632;28;20415;-68
2023/11/28 11:55:13;;;;;;;6.28;3.38;;;;;;;;;;5008962;28;20101;-67
2023/11/28 11:57:59;;;;;;;4.97;3.17;;;;;;;;;;5000664;28;20026;-68
2023/11/28 12:00:47;;;;;;;6.82;3.50;;;;;;;;;;5012920;28;20037;-67
2023/11/28 12:03:32;;;;;;;5.15;3.90;;;;;;;;;;5012656;28;20037;-67
2023/11/28 12:06:18;;;;;;;4.93;3.17;;;;;;;;;;4980997;28;20058;-68
2023/11/28 12:09:04;;;;;;;5.50;3.22;;;;;;;;;;4995136;28;20032;-68
2023/11/28 12:11:50;;;;;;;5.57;3.20;;;;;;;;;;4994647;28;20026;-69
2023/11/28 12:14:36;;;;;;;4.53;3.03;;;;;;;;;;4997977;28;20036;-69
2023/11/28 12:17:22;;;;;;;4.07;3.03;;;;;;;;;;5013506;28;20021;-69
2023/11/28 12:20:08;;;;;;;7.57;3.78;;;;;;;;;;5013416;28;20022;-68
2023/11/28 12:22:54;;;;;;;8.98;3.83;;;;;;;;;;4995305;28;20096;-68
2023/11/28 12:25:40;;;;;;;4.05;3.28;;;;;;;;;;4987980;28;20044;-68
2023/11/28 12:28:26;;;;;;;6.63;3.38;;;;;;;;;;4998758;28;20133;-68
2023/11/28 12:31:12;;;;;;;5.35;3.10;;;;;;;;;;4982499;28;20030;-68
2023/11/28 12:33:58;;;;;;;7.60;3.28;;;;;;;;;;4974418;28;20018;-68
2023/11/28 12:36:45;;;;;;;5.25;3.03;;;;;;;;;;4968149;28;20030;-68
2023/11/28 12:39:31;;;;;;;5.95;3.35;;;;;;;;;;4973846;28;20034;-68
2023/11/28 12:42:17;;;;;;;5.78;3.40;;;;;;;;;;4974874;28;20022;-68
2023/11/28 12:45:03;;;;;;;6.50;3.15;;;;;;;;;;4973933;28;20027;-68
2023/11/28 12:47:48;;;;;;;7.15;3.42;;;;;;;;;;4974174;28;20023;-68
2023/11/28 12:50:34;;;;;;;6.28;4.07;;;;;;;;;;4959947;28;20044;-68
2023/11/28 12:53:21;;;;;;;5.50;3.20;;;;;;;;;;4984750;28;20060;-68
2023/11/28 12:56:07;;;;;;;5.00;3.60;;;;;;;;;;5013574;28;20029;-68
2023/11/28 12:58:53;;;;;;;10.20;5.68;;;;;;;;;;5003390;28;20156;-68
2023/11/28 13:01:38;;;;;;;5.57;3.30;;;;;;;;;;5010798;28;20026;-68
2023/11/28 13:04:24;;;;;;;6.00;3.42;;;;;;;;;;4992666;28;20041;-68
2023/11/28 13:07:09;;;;;;;7.65;4.32;;;;;;;;;;4994082;28;20546;-68
2023/11/28 13:09:59;;;;;;;7.68;4.22;;;;;;;;;;5002175;28;20033;-68
2023/11/28 13:12:44;;;;;;;14.48;5.80;;;;;;;;;;5012593;28;20091;-68
2023/11/28 13:15:30;;;;;;;4.75;3.08;;;;;;;;;;4998798;28;20025;-68
2023/11/28 13:18:15;;;;;;;4.95;3.28;;;;;;;;;;5012790;28;20022;-68
2023/11/28 13:21:02;;;;;;;5.63;3.05;;;;;;;;;;5013238;28;20030;-68
2023/11/28 13:23:48;;;;;;;6.95;3.63;;;;;;;;;;4997346;28;20028;-68
2023/11/28 13:26:35;;;;;;;8.18;3.53;;;;;;;;;;5012621;28;20041;-68
2023/11/28 13:29:22;;;;;;;5.60;3.25;;;;;;;;;;5012512;28;20033;-68
2023/11/28 13:32:08;;;;;;;30.10;9.30;;;;;;;;;;5012420;28;20439;-68
2023/11/28 13:34:55;;;;;;;69.38;20.35;;;;;;;;;;4961797;28;20052;-68
2023/11/28 13:37:40;;;;;;;12.30;5.10;;;;;;;;;;4974082;28;20026;-68
2023/11/28 13:40:26;;;;;;;8.68;3.42;;;;;;;;;;4994072;28;20027;-68
2023/11/28 13:43:12;;;;;;;5.47;3.40;;;;;;;;;;4995369;28;20026;-68
2023/11/28 13:45:58;;;;;;;7.32;3.63;;;;;;;;;;5010972;28;20494;-68
2023/11/28 13:48:44;;;;;;;12.55;4.47;;;;;;;;;;5013323;28;20022;-68
2023/11/28 13:51:29;;;;;;;7.00;4.07;;;;;;;;;;5011432;28;20402;-68
2023/11/28 13:54:15;;;;;;;10.82;4.05;;;;;;;;;;5012665;28;20017;-68
2023/11/28 13:57:01;;;;;;;8.75;4.38;;;;;;;;;;5011868;28;20014;-68
2023/11/28 13:59:46;;;;;;;6.75;3.60;;;;;;;;;;5011122;28;20081;-68
2023/11/28 14:02:32;;;;;;;8.63;4.68;;;;;;;;;;4997089;28;20499;-68
2023/11/28 14:05:18;;;;;;;6.45;5.07;;;;;;;;;;5011964;28;20030;-68
2023/11/28 14:08:06;;;;;;;6.47;3.80;;;;;;;;;;5015347;28;20022;-68
2023/11/28 14:10:52;;;;;;;9.85;4.70;;;;;;;;;;5016252;28;20026;-68
2023/11/28 14:13:38;;;;;;;6.57;3.50;;;;;;;;;;5007354;28;20018;-68
2023/11/28 14:16:24;;;;;;;5.38;2.85;;;;;;;;;;5005790;28;20542;-67
2023/11/28 14:19:09;;;;;;;6.10;3.67;;;;;;;;;;5014871;28;20030;-68
2023/11/28 14:21:55;;;;;;;5.65;3.42;;;;;;;;;;5015368;28;20107;-68
2023/11/28 14:24:41;;;;;;;5.72;3.70;;;;;;;;;;5015861;28;20079;-67
2023/11/28 14:27:27;;;;;;;4.10;3.38;;;;;;;;;;4995537;28;20030;-68
2023/11/28 14:30:13;;;;;;;9.55;3.42;;;;;;;;;;4999427;28;20089;-67
2023/11/28 14:32:58;;;;;;;4.40;3.25;;;;;;;;;;4990730;28;20033;-68
2023/11/28 14:35:44;;;;;;;6.22;3.17;;;;;;;;;;4996276;28;20411;-67
2023/11/28 14:38:29;;;;;;;5.68;3.88;;;;;;;;;;4996130;28;20115;-68
2023/11/28 14:41:15;;;;;;;5.53;3.90;;;;;;;;;;4997038;28;20088;-68
2023/11/28 14:44:01;;;;;;;7.32;3.28;;;;;;;;;;4997659;28;20402;-68
2023/11/28 14:46:47;;;;;;;6.38;3.63;;;;;;;;;;5015081;28;20033;-68
2023/11/28 14:49:32;;;;;;;6.13;4.05;;;;;;;;;;5014919;28;20030;-68
2023/11/28 14:52:18;;;;;;;11.05;5.63;;;;;;;;;;5014874;28;20119;-68
2023/11/28 14:55:06;;;;;;;11.13;6.05;;;;;;;;;;5015653;28;20026;-68
2023/11/28 14:57:52;;;;;;;10.63;5.18;;;;;;;;;;4991561;28;20506;-67
2023/11/28 15:00:39;;;;;;;9.52;5.07;;;;;;;;;;4981358;28;20097;-68
2023/11/28 15:03:25;;;;;;;8.13;4.60;;;;;;;;;;4981702;28;20022;-68
2023/11/28 15:06:11;;;;;;;8.25;3.45;;;;;;;;;;4995680;28;20023;-68
2023/11/28 15:08:56;;;;;;;5.03;3.50;;;;;;;;;;4994502;28;20034;-68
2023/11/28 15:11:42;;;;;;;5.38;3.22;;;;;;;;;;4996081;28;20484;-68
2023/11/28 15:14:29;;;;;;;7.55;3.63;;;;;;;;;;4989055;28;20022;-68
2023/11/28 15:17:16;;;;;;;3.75;2.75;;;;;;;;;;4996056;28;20030;-68
2023/11/28 15:20:02;;;;;;;4.65;3.13;;;;;;;;;;4997897;28;20022;-68
2023/11/28 15:22:48;;;;;;;6.47;3.60;;;;;;;;;;5015396;28;20438;-68
2023/11/28 15:25:34;;;;;;;3.47;2.83;;;;;;;;;;5014310;28;20028;-68
2023/11/28 15:28:20;;;;;;;7.63;3.65;;;;;;;;;;4997132;28;20030;-68
2023/11/28 15:31:06;;;;;;;5.15;2.92;;;;;;;;;;5012984;28;20410;-68
2023/11/28 15:33:51;;;;;;;7.10;3.50;;;;;;;;;;5013035;28;20022;-68
2023/11/28 15:36:37;;;;;;;5.00;3.20;;;;;;;;;;5008179;28;20022;-68
2023/11/28 15:39:23;;;;;;;6.28;3.30;;;;;;;;;;5013682;28;20026;-68
2023/11/28 15:42:09;;;;;;;4.97;3.08;;;;;;;;;;5007685;28;20026;-68
2023/11/28 15:44:55;;;;;;;4.68;3.88;;;;;;;;;;4967674;28;20402;-68
2023/11/28 15:47:40;;;;;;;6.32;3.53;;;;;;;;;;5014259;28;20030;-68
2023/11/28 15:50:26;;;;;;;7.03;3.67;;;;;;;;;;4997987;28;20027;-68
2023/11/28 15:53:12;;;;;;;4.93;3.42;;;;;;;;;;4994017;28;20407;-68
2023/11/28 15:55:58;;;;;;;7.47;3.70;;;;;;;;;;5001819;28;20053;-68
2023/11/28 15:58:44;;;;;;;6.47;3.92;;;;;;;;;;4993656;28;20026;-68
2023/11/28 16:01:30;;;;;;;7.50;3.33;;;;;;;;;;4994073;28;20537;-68
2023/11/28 16:04:16;;;;;;;8.02;3.80;;;;;;;;;;5005679;28;20022;-67
2023/11/28 16:07:03;;;;;;;8.20;4.07;;;;;;;;;;5012894;28;20487;-68
2023/11/28 16:09:49;;;;;;;6.70;3.88;;;;;;;;;;4994553;28;20034;-67
2023/11/28 16:12:35;;;;;;;9.00;3.55;;;;;;;;;;4994163;28;20038;-68
2023/11/28 16:15:20;;;;;;;6.03;3.97;;;;;;;;;;4995590;28;20041;-68
2023/11/28 16:18:06;;;;;;;5.05;3.95;;;;;;;;;;5006071;28;20032;-67
2023/11/28 16:20:51;;;;;;;4.75;4.15;;;;;;;;;;5013955;28;20018;-68
2023/11/28 16:23:37;;;;;;;6.15;3.80;;;;;;;;;;5000673;28;20450;-68
2023/11/28 16:26:23;;;;;;;5.88;3.42;;;;;;;;;;4996568;28;20022;-68
2023/11/28 16:29:08;;;;;;;7.68;4.38;;;;;;;;;;5004485;28;20026;-67
2023/11/28 16:31:54;;;;;;;9.05;3.75;;;;;;;;;;5014553;28;20084;-68
2023/11/28 16:34:40;;;;;;;7.45;3.58;;;;;;;;;;4987729;28;20061;-68
2023/11/28 16:37:25;;;;;;;11.27;3.83;;;;;;;;;;5010631;28;20031;-67